sensor_id;sensor_type;location;lat;lon;timestamp;temperature;humidity
25128;DHT22;13107;51.304;6.866;2023-04-03T00:01:57;0.20;99.90
25128;DHT22;13107;51.304;6.866;2023-04-03T00:05:59;0.20;99.90
25128;DHT22;13107;51.304;6.866;2023-04-03T00:10:02;0.20;99.90
25128;DHT22;13107;51.304;6.866;2023-04-03T00:14:04;0.20;99.90
25128;DHT22;13107;51.304;6.866;2023-04-03T00:18:06;0.10;99.90
25128;DHT22;13107;51.304;6.866;2023-04-03T00:22:08;0.10;99.90
25128;DHT22;13107;51.304;6.866;2023-04-03T00:26:10;0.10;99.90
25128;DHT22;13107;51.304;6.866;2023-04-03T00:30:15;0.10;99.90
25128;DHT22;13107;51.304;6.866;2023-04-03T00:34:17;0.00;99.90
25128;DHT22;13107;51.304;6.866;2023-04-03T00:38:19;0.00;99.90
25128;DHT22;13107;51.304;6.866;2023-04-03T00:42:20;0.00;99.90
25128;DHT22;13107;51.304;6.866;2023-04-03T00:46:22;0.00;99.90
25128;DHT22;13107;51.304;6.866;2023-04-03T00:50:24;-0.10;99.90
25128;DHT22;13107;51.304;6.866;2023-04-03T00:54:26;-0.10;99.90
25128;DHT22;13107;51.304;6.866;2023-04-03T00:58:34;-0.10;99.90
25128;DHT22;13107;51.304;6.866;2023-04-03T01:02:38;-0.10;99.90
25128;DHT22;13107;51.304;6.866;2023-04-03T01:06:42;-0.10;99.90
25128;DHT22;13107;51.304;6.866;2023-04-03T01:10:44;-0.10;99.90
25128;DHT22;13107;51.304;6.866;2023-04-03T01:14:48;-0.10;99.90
25128;DHT22;13107;51.304;6.866;2023-04-03T01:18:50;-0.20;99.90
25128;DHT22;13107;51.304;6.866;2023-04-03T01:27:11;-0.20;99.90
25128;DHT22;13107;51.304;6.866;2023-04-03T01:35:34;-0.20;99.90
25128;DHT22;13107;51.304;6.866;2023-04-03T01:39:35;-0.20;99.90
25128;DHT22;13107;51.304;6.866;2023-04-03T01:43:37;-0.20;99.90
25128;DHT22;13107;51.304;6.866;2023-04-03T01:47:39;-0.30;99.90
25128;DHT22;13107;51.304;6.866;2023-04-03T01:51:41;-0.30;99.90
25128;DHT22;13107;51.304;6.866;2023-04-03T01:55:42;-0.30;99.90
25128;DHT22;13107;51.304;6.866;2023-04-03T01:59:44;-0.30;99.90
25128;DHT22;13107;51.304;6.866;2023-04-03T02:03:46;-0.40;99.90
25128;DHT22;13107;51.304;6.866;2023-04-03T02:07:48;-0.40;99.90
25128;DHT22;13107;51.304;6.866;2023-04-03T02:11:50;-0.50;99.90
25128;DHT22;13107;51.304;6.866;2023-04-03T02:15:52;-0.40;99.90
25128;DHT22;13107;51.304;6.866;2023-04-03T02:19:54;-0.40;99.90
25128;DHT22;13107;51.304;6.866;2023-04-03T02:23:56;-0.50;99.90
25128;DHT22;13107;51.304;6.866;2023-04-03T02:27:58;-0.50;99.90
25128;DHT22;13107;51.304;6.866;2023-04-03T02:31:59;-0.50;99.90
25128;DHT22;13107;51.304;6.866;2023-04-03T02:36:03;-0.50;99.90
25128;DHT22;13107;51.304;6.866;2023-04-03T02:40:06;-0.40;99.90
25128;DHT22;13107;51.304;6.866;2023-04-03T02:44:09;-0.40;99.90
25128;DHT22;13107;51.304;6.866;2023-04-03T02:48:11;-0.30;99.90
25128;DHT22;13107;51.304;6.866;2023-04-03T02:52:14;-0.30;99.90
25128;DHT22;13107;51.304;6.866;2023-04-03T02:56:17;-0.20;99.90
25128;DHT22;13107;51.304;6.866;2023-04-03T03:00:19;-0.10;99.90
25128;DHT22;13107;51.304;6.866;2023-04-03T03:04:21;0.00;99.90
25128;DHT22;13107;51.304;6.866;2023-04-03T03:08:23;0.10;99.90
25128;DHT22;13107;51.304;6.866;2023-04-03T03:12:25;0.10;99.90
25128;DHT22;13107;51.304;6.866;2023-04-03T03:16:27;0.10;99.90
25128;DHT22;13107;51.304;6.866;2023-04-03T03:20:28;0.10;99.90
25128;DHT22;13107;51.304;6.866;2023-04-03T03:24:30;0.10;99.90
25128;DHT22;13107;51.304;6.866;2023-04-03T03:28:32;0.10;99.90
25128;DHT22;13107;51.304;6.866;2023-04-03T03:32:34;0.20;99.90
25128;DHT22;13107;51.304;6.866;2023-04-03T03:36:36;0.30;99.90
25128;DHT22;13107;51.304;6.866;2023-04-03T03:40:38;0.30;99.90
25128;DHT22;13107;51.304;6.866;2023-04-03T03:44:40;0.40;99.90
25128;DHT22;13107;51.304;6.866;2023-04-03T03:48:41;0.40;99.90
25128;DHT22;13107;51.304;6.866;2023-04-03T03:52:43;0.30;99.90
25128;DHT22;13107;51.304;6.866;2023-04-03T03:56:45;0.40;99.90
25128;DHT22;13107;51.304;6.866;2023-04-03T04:00:47;0.40;99.90
25128;DHT22;13107;51.304;6.866;2023-04-03T04:04:49;0.40;99.90
25128;DHT22;13107;51.304;6.866;2023-04-03T04:08:51;0.30;99.90
25128;DHT22;13107;51.304;6.866;2023-04-03T04:12:54;0.40;99.90
25128;DHT22;13107;51.304;6.866;2023-04-03T04:16:58;0.40;99.90
25128;DHT22;13107;51.304;6.866;2023-04-03T04:21:00;0.40;99.90
25128;DHT22;13107;51.304;6.866;2023-04-03T04:25:02;0.50;99.90
25128;DHT22;13107;51.304;6.866;2023-04-03T04:29:04;0.40;99.90
25128;DHT22;13107;51.304;6.866;2023-04-03T04:33:06;0.50;99.90
25128;DHT22;13107;51.304;6.866;2023-04-03T04:37:08;0.50;99.90
25128;DHT22;13107;51.304;6.866;2023-04-03T04:41:10;0.40;99.90
25128;DHT22;13107;51.304;6.866;2023-04-03T04:45:12;0.40;99.90
25128;DHT22;13107;51.304;6.866;2023-04-03T04:49:13;0.50;99.90
25128;DHT22;13107;51.304;6.866;2023-04-03T04:53:15;0.40;99.90
25128;DHT22;13107;51.304;6.866;2023-04-03T04:57:17;0.40;99.90
25128;DHT22;13107;51.304;6.866;2023-04-03T05:01:19;0.30;99.90
25128;DHT22;13107;51.304;6.866;2023-04-03T05:05:21;0.30;99.90
25128;DHT22;13107;51.304;6.866;2023-04-03T05:09:23;0.30;99.90
25128;DHT22;13107;51.304;6.866;2023-04-03T05:13:25;0.30;99.90
25128;DHT22;13107;51.304;6.866;2023-04-03T05:17:27;0.40;99.90
25128;DHT22;13107;51.304;6.866;2023-04-03T05:21:29;0.30;99.90
25128;DHT22;13107;51.304;6.866;2023-04-03T05:25:33;0.30;99.90
25128;DHT22;13107;51.304;6.866;2023-04-03T05:29:36;0.30;99.90
25128;DHT22;13107;51.304;6.866;2023-04-03T05:33:37;0.30;99.90
25128;DHT22;13107;51.304;6.866;2023-04-03T05:37:39;0.30;99.90
25128;DHT22;13107;51.304;6.866;2023-04-03T05:41:41;0.30;99.90
25128;DHT22;13107;51.304;6.866;2023-04-03T05:45:43;0.40;99.90
25128;DHT22;13107;51.304;6.866;2023-04-03T05:49:47;0.40;99.90
25128;DHT22;13107;51.304;6.866;2023-04-03T05:53:58;0.40;99.90
25128;DHT22;13107;51.304;6.866;2023-04-03T05:58:01;0.40;99.90
25128;DHT22;13107;51.304;6.866;2023-04-03T06:02:02;0.50;99.90
25128;DHT22;13107;51.304;6.866;2023-04-03T06:06:04;0.50;99.90
25128;DHT22;13107;51.304;6.866;2023-04-03T06:10:07;0.60;99.90
25128;DHT22;13107;51.304;6.866;2023-04-03T06:14:10;0.60;99.90
25128;DHT22;13107;51.304;6.866;2023-04-03T06:18:12;0.60;99.90
25128;DHT22;13107;51.304;6.866;2023-04-03T06:22:14;0.80;99.90
25128;DHT22;13107;51.304;6.866;2023-04-03T06:26:17;0.90;99.90
25128;DHT22;13107;51.304;6.866;2023-04-03T06:30:19;0.90;99.90
25128;DHT22;13107;51.304;6.866;2023-04-03T06:34:20;1.00;99.90
25128;DHT22;13107;51.304;6.866;2023-04-03T06:38:22;1.00;99.90
25128;DHT22;13107;51.304;6.866;2023-04-03T06:42:24;1.10;99.90
25128;DHT22;13107;51.304;6.866;2023-04-03T06:46:26;1.20;99.90
25128;DHT22;13107;51.304;6.866;2023-04-03T06:50:28;1.20;99.90
25128;DHT22;13107;51.304;6.866;2023-04-03T06:54:30;1.30;99.90
25128;DHT22;13107;51.304;6.866;2023-04-03T06:58:32;1.30;99.90
25128;DHT22;13107;51.304;6.866;2023-04-03T07:02:34;1.40;99.90
25128;DHT22;13107;51.304;6.866;2023-04-03T07:06:36;1.50;99.90
25128;DHT22;13107;51.304;6.866;2023-04-03T07:10:38;1.50;99.90
25128;DHT22;13107;51.304;6.866;2023-04-03T07:14:40;1.60;99.90
25128;DHT22;13107;51.304;6.866;2023-04-03T07:18:42;1.70;99.90
25128;DHT22;13107;51.304;6.866;2023-04-03T07:22:44;1.80;99.90
25128;DHT22;13107;51.304;6.866;2023-04-03T07:26:49;1.90;99.90
25128;DHT22;13107;51.304;6.866;2023-04-03T07:30:53;2.00;99.90
25128;DHT22;13107;51.304;6.866;2023-04-03T07:34:55;2.10;99.90
25128;DHT22;13107;51.304;6.866;2023-04-03T07:38:57;2.20;99.90
25128;DHT22;13107;51.304;6.866;2023-04-03T07:42:59;2.30;99.90
25128;DHT22;13107;51.304;6.866;2023-04-03T07:47:01;2.40;99.90
25128;DHT22;13107;51.304;6.866;2023-04-03T07:51:04;2.60;99.90
25128;DHT22;13107;51.304;6.866;2023-04-03T07:55:06;2.80;99.90
25128;DHT22;13107;51.304;6.866;2023-04-03T07:59:09;3.20;99.90
25128;DHT22;13107;51.304;6.866;2023-04-03T08:03:12;3.60;99.90
25128;DHT22;13107;51.304;6.866;2023-04-03T08:07:14;4.00;99.90
25128;DHT22;13107;51.304;6.866;2023-04-03T08:11:16;4.60;99.90
25128;DHT22;13107;51.304;6.866;2023-04-03T08:15:20;4.70;99.90
25128;DHT22;13107;51.304;6.866;2023-04-03T08:19:22;5.00;99.90
25128;DHT22;13107;51.304;6.866;2023-04-03T08:23:27;5.50;99.90
25128;DHT22;13107;51.304;6.866;2023-04-03T08:27:29;5.20;99.90
25128;DHT22;13107;51.304;6.866;2023-04-03T08:31:30;5.10;99.90
25128;DHT22;13107;51.304;6.866;2023-04-03T08:35:32;5.40;99.90
25128;DHT22;13107;51.304;6.866;2023-04-03T08:39:36;5.50;99.90
25128;DHT22;13107;51.304;6.866;2023-04-03T08:44:00;5.50;99.90
25128;DHT22;13107;51.304;6.866;2023-04-03T08:48:11;5.90;99.90
25128;DHT22;13107;51.304;6.866;2023-04-03T08:52:50;5.80;99.90
25128;DHT22;13107;51.304;6.866;2023-04-03T08:56:53;6.10;99.90
25128;DHT22;13107;51.304;6.866;2023-04-03T09:01:05;6.30;99.90
25128;DHT22;13107;51.304;6.866;2023-04-03T09:05:14;6.40;99.90
25128;DHT22;13107;51.304;6.866;2023-04-03T09:09:39;6.40;99.90
25128;DHT22;13107;51.304;6.866;2023-04-03T09:18:41;7.10;99.90
25128;DHT22;13107;51.304;6.866;2023-04-03T09:22:44;7.60;99.90
25128;DHT22;13107;51.304;6.866;2023-04-03T09:26:57;7.70;99.90
25128;DHT22;13107;51.304;6.866;2023-04-03T09:31:02;7.50;98.80
25128;DHT22;13107;51.304;6.866;2023-04-03T09:35:24;8.30;99.90
25128;DHT22;13107;51.304;6.866;2023-04-03T09:39:51;8.30;98.60
25128;DHT22;13107;51.304;6.866;2023-04-03T09:43:54;7.80;99.10
25128;DHT22;13107;51.304;6.866;2023-04-03T09:52:23;8.70;94.70
25128;DHT22;13107;51.304;6.866;2023-04-03T09:56:28;9.70;92.40
25128;DHT22;13107;51.304;6.866;2023-04-03T10:00:35;11.20;92.70
25128;DHT22;13107;51.304;6.866;2023-04-03T10:04:40;10.60;87.60
25128;DHT22;13107;51.304;6.866;2023-04-03T10:08:42;10.40;75.60
25128;DHT22;13107;51.304;6.866;2023-04-03T10:12:44;10.70;75.20
25128;DHT22;13107;51.304;6.866;2023-04-03T10:16:52;11.70;74.60
25128;DHT22;13107;51.304;6.866;2023-04-03T10:34:23;11.20;72.20
25128;DHT22;13107;51.304;6.866;2023-04-03T10:47:09;11.50;66.20
25128;DHT22;13107;51.304;6.866;2023-04-03T10:51:19;11.90;66.20
25128;DHT22;13107;51.304;6.866;2023-04-03T10:59:47;11.50;68.40
25128;DHT22;13107;51.304;6.866;2023-04-03T11:03:53;11.20;68.30
25128;DHT22;13107;51.304;6.866;2023-04-03T11:07:57;11.20;67.00
25128;DHT22;13107;51.304;6.866;2023-04-03T11:12:15;11.60;67.30
25128;DHT22;13107;51.304;6.866;2023-04-03T11:16:26;12.50;64.80
25128;DHT22;13107;51.304;6.866;2023-04-03T11:20:29;12.70;64.30
25128;DHT22;13107;51.304;6.866;2023-04-03T11:24:36;12.30;60.10
25128;DHT22;13107;51.304;6.866;2023-04-03T11:28:40;11.90;61.90
25128;DHT22;13107;51.304;6.866;2023-04-03T11:37:43;12.70;57.70
25128;DHT22;13107;51.304;6.866;2023-04-03T11:41:42;12.00;59.60
25128;DHT22;13107;51.304;6.866;2023-04-03T11:45:54;12.60;57.00
25128;DHT22;13107;51.304;6.866;2023-04-03T11:49:58;13.40;59.20
25128;DHT22;13107;51.304;6.866;2023-04-03T12:07:39;14.00;56.00
25128;DHT22;13107;51.304;6.866;2023-04-03T12:11:40;13.00;55.60
25128;DHT22;13107;51.304;6.866;2023-04-03T12:15:50;13.90;57.10
25128;DHT22;13107;51.304;6.866;2023-04-03T12:19:52;13.90;53.60
25128;DHT22;13107;51.304;6.866;2023-04-03T12:28:10;13.10;52.60
25128;DHT22;13107;51.304;6.866;2023-04-03T12:41:57;14.20;53.40
25128;DHT22;13107;51.304;6.866;2023-04-03T12:50:24;14.10;53.10
25128;DHT22;13107;51.304;6.866;2023-04-03T12:54:39;14.50;50.80
25128;DHT22;13107;51.304;6.866;2023-04-03T12:58:41;13.80;51.90
25128;DHT22;13107;51.304;6.866;2023-04-03T13:02:44;13.50;51.30
25128;DHT22;13107;51.304;6.866;2023-04-03T13:06:48;12.40;54.70
25128;DHT22;13107;51.304;6.866;2023-04-03T13:11:10;12.10;55.00
25128;DHT22;13107;51.304;6.866;2023-04-03T13:15:20;12.50;56.00
25128;DHT22;13107;51.304;6.866;2023-04-03T13:19:24;12.20;54.90
25128;DHT22;13107;51.304;6.866;2023-04-03T13:23:29;11.80;56.00
25128;DHT22;13107;51.304;6.866;2023-04-03T13:27:33;12.30;56.90
25128;DHT22;13107;51.304;6.866;2023-04-03T13:31:37;12.30;58.70
25128;DHT22;13107;51.304;6.866;2023-04-03T13:35:41;12.50;57.00
25128;DHT22;13107;51.304;6.866;2023-04-03T13:39:43;13.00;57.70
25128;DHT22;13107;51.304;6.866;2023-04-03T13:43:44;13.70;54.50
25128;DHT22;13107;51.304;6.866;2023-04-03T13:47:48;13.20;55.00
25128;DHT22;13107;51.304;6.866;2023-04-03T13:51:50;13.70;56.50
25128;DHT22;13107;51.304;6.866;2023-04-03T13:56:14;14.40;54.80
25128;DHT22;13107;51.304;6.866;2023-04-03T14:04:56;13.20;55.40
25128;DHT22;13107;51.304;6.866;2023-04-03T14:09:01;13.90;54.20
25128;DHT22;13107;51.304;6.866;2023-04-03T14:13:03;13.90;54.50
25128;DHT22;13107;51.304;6.866;2023-04-03T14:17:14;13.90;54.10
25128;DHT22;13107;51.304;6.866;2023-04-03T14:21:25;13.20;54.40
25128;DHT22;13107;51.304;6.866;2023-04-03T14:25:27;12.40;56.80
25128;DHT22;13107;51.304;6.866;2023-04-03T14:29:29;12.00;55.90
25128;DHT22;13107;51.304;6.866;2023-04-03T14:33:31;12.10;58.70
25128;DHT22;13107;51.304;6.866;2023-04-03T14:37:36;12.60;56.80
25128;DHT22;13107;51.304;6.866;2023-04-03T14:41:38;12.30;57.70
25128;DHT22;13107;51.304;6.866;2023-04-03T14:45:40;10.70;61.80
25128;DHT22;13107;51.304;6.866;2023-04-03T14:49:43;10.10;63.80
25128;DHT22;13107;51.304;6.866;2023-04-03T14:53:45;9.40;64.70
25128;DHT22;13107;51.304;6.866;2023-04-03T14:57:47;9.20;68.40
25128;DHT22;13107;51.304;6.866;2023-04-03T15:01:49;8.80;66.90
25128;DHT22;13107;51.304;6.866;2023-04-03T15:05:51;8.80;71.30
25128;DHT22;13107;51.304;6.866;2023-04-03T15:09:53;8.80;70.50
25128;DHT22;13107;51.304;6.866;2023-04-03T15:13:55;8.50;70.70
25128;DHT22;13107;51.304;6.866;2023-04-03T15:17:57;8.60;72.00
25128;DHT22;13107;51.304;6.866;2023-04-03T15:21:59;8.70;73.10
25128;DHT22;13107;51.304;6.866;2023-04-03T15:26:01;8.60;70.60
25128;DHT22;13107;51.304;6.866;2023-04-03T15:30:05;8.50;70.70
25128;DHT22;13107;51.304;6.866;2023-04-03T15:34:07;8.50;72.20
25128;DHT22;13107;51.304;6.866;2023-04-03T15:38:09;8.40;71.40
25128;DHT22;13107;51.304;6.866;2023-04-03T15:42:12;8.40;74.70
25128;DHT22;13107;51.304;6.866;2023-04-03T15:46:14;8.30;74.40
25128;DHT22;13107;51.304;6.866;2023-04-03T15:50:16;8.40;78.00
25128;DHT22;13107;51.304;6.866;2023-04-03T15:54:18;8.20;76.00
25128;DHT22;13107;51.304;6.866;2023-04-03T15:58:20;8.10;75.20
25128;DHT22;13107;51.304;6.866;2023-04-03T16:02:22;8.20;75.20
25128;DHT22;13107;51.304;6.866;2023-04-03T16:06:25;7.90;75.30
25128;DHT22;13107;51.304;6.866;2023-04-03T16:10:27;8.00;78.30
25128;DHT22;13107;51.304;6.866;2023-04-03T16:14:29;7.90;77.30
25128;DHT22;13107;51.304;6.866;2023-04-03T16:18:32;7.80;77.20
25128;DHT22;13107;51.304;6.866;2023-04-03T16:22:35;7.70;76.80
25128;DHT22;13107;51.304;6.866;2023-04-03T16:26:38;7.60;78.70
25128;DHT22;13107;51.304;6.866;2023-04-03T16:30:41;7.60;78.60
25128;DHT22;13107;51.304;6.866;2023-04-03T16:34:43;7.50;81.40
25128;DHT22;13107;51.304;6.866;2023-04-03T16:38:45;7.50;82.00
25128;DHT22;13107;51.304;6.866;2023-04-03T16:42:47;7.50;81.40
25128;DHT22;13107;51.304;6.866;2023-04-03T16:46:49;7.50;81.60
25128;DHT22;13107;51.304;6.866;2023-04-03T16:50:50;7.40;80.30
25128;DHT22;13107;51.304;6.866;2023-04-03T16:54:54;7.50;82.20
25128;DHT22;13107;51.304;6.866;2023-04-03T16:58:57;7.30;81.80
25128;DHT22;13107;51.304;6.866;2023-04-03T17:02:59;7.20;81.60
25128;DHT22;13107;51.304;6.866;2023-04-03T17:07:01;7.10;82.20
25128;DHT22;13107;51.304;6.866;2023-04-03T17:11:07;7.00;84.20
25128;DHT22;13107;51.304;6.866;2023-04-03T17:15:09;6.90;84.90
25128;DHT22;13107;51.304;6.866;2023-04-03T17:19:11;6.90;88.40
25128;DHT22;13107;51.304;6.866;2023-04-03T17:23:13;6.70;87.70
25128;DHT22;13107;51.304;6.866;2023-04-03T17:27:15;6.80;85.30
25128;DHT22;13107;51.304;6.866;2023-04-03T17:31:17;6.70;86.90
25128;DHT22;13107;51.304;6.866;2023-04-03T17:35:18;6.60;87.40
25128;DHT22;13107;51.304;6.866;2023-04-03T17:39:20;6.50;87.50
25128;DHT22;13107;51.304;6.866;2023-04-03T17:43:22;6.40;88.20
25128;DHT22;13107;51.304;6.866;2023-04-03T17:47:24;6.30;89.60
25128;DHT22;13107;51.304;6.866;2023-04-03T17:51:26;6.10;91.20
25128;DHT22;13107;51.304;6.866;2023-04-03T17:55:28;6.10;91.50
25128;DHT22;13107;51.304;6.866;2023-04-03T17:59:30;6.00;91.50
25128;DHT22;13107;51.304;6.866;2023-04-03T18:03:32;5.90;92.40
25128;DHT22;13107;51.304;6.866;2023-04-03T18:07:35;5.80;92.50
25128;DHT22;13107;51.304;6.866;2023-04-03T18:11:37;5.70;94.80
25128;DHT22;13107;51.304;6.866;2023-04-03T18:15:39;5.70;93.70
25128;DHT22;13107;51.304;6.866;2023-04-03T18:19:46;5.50;94.40
25128;DHT22;13107;51.304;6.866;2023-04-03T18:23:51;5.40;95.70
25128;DHT22;13107;51.304;6.866;2023-04-03T18:27:53;5.40;95.60
25128;DHT22;13107;51.304;6.866;2023-04-03T18:31:56;5.40;96.00
25128;DHT22;13107;51.304;6.866;2023-04-03T18:35:59;5.30;97.20
25128;DHT22;13107;51.304;6.866;2023-04-03T18:40:01;5.20;97.90
25128;DHT22;13107;51.304;6.866;2023-04-03T18:44:07;5.10;97.70
25128;DHT22;13107;51.304;6.866;2023-04-03T18:48:10;5.20;98.10
25128;DHT22;13107;51.304;6.866;2023-04-03T18:52:12;5.00;99.10
25128;DHT22;13107;51.304;6.866;2023-04-03T18:56:13;4.90;99.00
25128;DHT22;13107;51.304;6.866;2023-04-03T19:00:17;4.80;99.90
25128;DHT22;13107;51.304;6.866;2023-04-03T19:04:19;4.90;99.90
25128;DHT22;13107;51.304;6.866;2023-04-03T19:08:22;4.80;99.90
25128;DHT22;13107;51.304;6.866;2023-04-03T19:12:24;4.80;99.90
25128;DHT22;13107;51.304;6.866;2023-04-03T19:16:26;4.70;99.90
25128;DHT22;13107;51.304;6.866;2023-04-03T19:20:28;4.70;99.90
25128;DHT22;13107;51.304;6.866;2023-04-03T19:24:30;4.70;99.90
25128;DHT22;13107;51.304;6.866;2023-04-03T19:28:31;4.70;99.90
25128;DHT22;13107;51.304;6.866;2023-04-03T19:32:34;4.60;99.90
25128;DHT22;13107;51.304;6.866;2023-04-03T19:36:35;4.50;99.90
25128;DHT22;13107;51.304;6.866;2023-04-03T19:40:37;4.50;99.90
25128;DHT22;13107;51.304;6.866;2023-04-03T19:44:44;4.50;99.90
25128;DHT22;13107;51.304;6.866;2023-04-03T19:48:47;4.50;99.90
25128;DHT22;13107;51.304;6.866;2023-04-03T19:52:49;4.40;99.90
25128;DHT22;13107;51.304;6.866;2023-04-03T19:56:50;4.30;99.90
25128;DHT22;13107;51.304;6.866;2023-04-03T20:00:52;4.30;99.90
25128;DHT22;13107;51.304;6.866;2023-04-03T20:04:56;4.20;99.90
25128;DHT22;13107;51.304;6.866;2023-04-03T20:08:58;4.20;99.90
25128;DHT22;13107;51.304;6.866;2023-04-03T20:13:00;4.10;99.90
25128;DHT22;13107;51.304;6.866;2023-04-03T20:17:02;4.00;99.90
25128;DHT22;13107;51.304;6.866;2023-04-03T20:21:05;3.90;99.90
25128;DHT22;13107;51.304;6.866;2023-04-03T20:25:09;3.90;99.90
25128;DHT22;13107;51.304;6.866;2023-04-03T20:29:17;3.80;99.90
25128;DHT22;13107;51.304;6.866;2023-04-03T20:33:20;3.80;99.90
25128;DHT22;13107;51.304;6.866;2023-04-03T20:37:22;3.80;99.90
25128;DHT22;13107;51.304;6.866;2023-04-03T20:41:24;3.70;99.90
25128;DHT22;13107;51.304;6.866;2023-04-03T20:45:26;3.60;99.90
25128;DHT22;13107;51.304;6.866;2023-04-03T20:49:28;3.60;99.90
25128;DHT22;13107;51.304;6.866;2023-04-03T20:53:30;3.60;99.90
25128;DHT22;13107;51.304;6.866;2023-04-03T20:57:33;3.60;99.90
25128;DHT22;13107;51.304;6.866;2023-04-03T21:01:34;3.50;99.90
25128;DHT22;13107;51.304;6.866;2023-04-03T21:05:36;3.40;99.90
25128;DHT22;13107;51.304;6.866;2023-04-03T21:23:13;3.30;99.90
25128;DHT22;13107;51.304;6.866;2023-04-03T21:27:15;3.20;99.90
25128;DHT22;13107;51.304;6.866;2023-04-03T21:31:17;3.10;99.90
25128;DHT22;13107;51.304;6.866;2023-04-03T21:35:19;3.00;99.90
25128;DHT22;13107;51.304;6.866;2023-04-03T21:39:22;2.90;99.90
25128;DHT22;13107;51.304;6.866;2023-04-03T21:43:24;2.70;99.90
25128;DHT22;13107;51.304;6.866;2023-04-03T21:47:26;2.40;99.90
25128;DHT22;13107;51.304;6.866;2023-04-03T21:51:28;2.10;99.90
25128;DHT22;13107;51.304;6.866;2023-04-03T21:55:30;2.00;99.90
25128;DHT22;13107;51.304;6.866;2023-04-03T21:59:32;1.90;99.90
25128;DHT22;13107;51.304;6.866;2023-04-03T22:03:35;1.80;99.90
25128;DHT22;13107;51.304;6.866;2023-04-03T22:07:36;1.60;99.90
25128;DHT22;13107;51.304;6.866;2023-04-03T22:11:38;1.50;99.90
25128;DHT22;13107;51.304;6.866;2023-04-03T22:15:46;1.40;99.90
25128;DHT22;13107;51.304;6.866;2023-04-03T22:19:48;1.10;99.90
25128;DHT22;13107;51.304;6.866;2023-04-03T22:23:50;1.00;99.90
25128;DHT22;13107;51.304;6.866;2023-04-03T22:27:53;0.90;99.90
25128;DHT22;13107;51.304;6.866;2023-04-03T22:31:54;0.80;99.90
25128;DHT22;13107;51.304;6.866;2023-04-03T22:35:56;0.70;99.90
25128;DHT22;13107;51.304;6.866;2023-04-03T22:39:58;0.60;99.90
25128;DHT22;13107;51.304;6.866;2023-04-03T22:44:00;0.50;99.90
25128;DHT22;13107;51.304;6.866;2023-04-03T22:48:02;0.40;99.90
25128;DHT22;13107;51.304;6.866;2023-04-03T22:52:04;0.40;99.90
25128;DHT22;13107;51.304;6.866;2023-04-03T22:56:06;0.40;99.90
25128;DHT22;13107;51.304;6.866;2023-04-03T23:00:12;0.30;99.90
25128;DHT22;13107;51.304;6.866;2023-04-03T23:04:14;0.20;99.90
25128;DHT22;13107;51.304;6.866;2023-04-03T23:08:17;0.20;99.90
25128;DHT22;13107;51.304;6.866;2023-04-03T23:12:19;0.10;99.90
25128;DHT22;13107;51.304;6.866;2023-04-03T23:16:21;0.00;99.90
25128;DHT22;13107;51.304;6.866;2023-04-03T23:20:23;0.00;99.90
25128;DHT22;13107;51.304;6.866;2023-04-03T23:24:26;0.00;99.90
25128;DHT22;13107;51.304;6.866;2023-04-03T23:28:29;0.00;99.90
25128;DHT22;13107;51.304;6.866;2023-04-03T23:32:30;0.00;99.90
25128;DHT22;13107;51.304;6.866;2023-04-03T23:36:32;-0.10;99.90
25128;DHT22;13107;51.304;6.866;2023-04-03T23:40:34;-0.20;99.90
25128;DHT22;13107;51.304;6.866;2023-04-03T23:44:36;-0.20;99.90
25128;DHT22;13107;51.304;6.866;2023-04-03T23:48:38;-0.20;99.90
25128;DHT22;13107;51.304;6.866;2023-04-03T23:52:39;-0.30;99.90
25128;DHT22;13107;51.304;6.866;2023-04-03T23:56:41;-0.30;99.90
